默认 日期 大小 文件数 浏览量 最新下载 xml
high 2022磁力链接相关资源由用户搜索指令自动获取,结果来源于网络,本站不存储任何资料,亦不承担任何责任,请于24小时内删除,搜索到708个磁力,用时12ms。
    ... .flac": 32149821, "00 - Ego Trippin - High Times EP (LDDR198) [2022].jpg": 51689}
创建时间: 2022-09-05 22:00:01 大小:181.25 MB 文件数量:7 热度:8 最近下载:2025-01-04 21:16:13
    ... 1352068429, "炽热之境.High.Heat.2022.S01E02.1080p.NF.WEB ... 1269562350, "炽热之境.High.Heat.2022.S01E03.1080p.NF.WEB ... 1106328605, "炽热之境.High.Heat.2022.S01E05.1080p.NF.WEB ... 1108778013, "炽热之境.High.Heat.2022.S01E13.1080p.NF.WEB ... , "炽热之境.High.Heat.2022.S01E20.1080p.NF.WEB ...
创建时间: 2022-09-06 23:45:59 大小:36.55 GB 文件数量:41 热度:29 最近下载:2025-10-14 23:26:03
    {"folder.jpg": 878033, "07 - Hoedown.flac": 22991413, "11 - White Bird.flac": 55018548, "05 - Bitter Wine.flac": 35217448, "08 - Good Lovin`.flac": 30243485, "06 - Bye Bye Baby.flac": 27233704, "10 - The Dolphins.flac": 28257885, "02 - Don and Dewey.flac": ...
创建时间: 2022-09-07 08:14:21 大小:341.78 MB 文件数量:12 热度:3 最近下载:2025-01-02 10:53:02
    ... - Spaceboy.flac": 38248857, "01 - 10AD - High Roller.flac": 22700495, "07 - 10AD ... - Hundreds.flac": 27871001, "00 - 10AD - High Roller LP (OD008) [2022].jpg": 38831}
创建时间: 2022-09-07 21:32:50 大小:267.54 MB 文件数量:11 热度:3 最近下载:2025-01-10 16:13:02
    {"__ia_thumb.jpg": 5807, "The_Exorcism_of_God_(2022)_BluRay_high_(fzmovies.net)_e29978395a4ac2a4ffd069c3219969e1.mp4": ... , "the-exorcism-of-god-2022-blu-ray-high-fzmovies.net-e-29978395a ... , "the-exorcism-of-god-2022-blu-ray-high-fzmovies.net-e-29978395a ...
创建时间: 2022-09-10 06:46:01 大小:263.37 MB 文件数量:4 热度:4 最近下载:2025-10-03 21:54:03
    {"Tran T. High-Speed System and Analog Input-Output Design 2ed 2022.pdf": 9968960}
创建时间: 2022-09-10 17:27:59 大小:9.51 MB 文件数量:1 热度:6 最近下载:2025-09-19 02:06:02
    {"01 - High Frequency (UK) - Harry.flac": 38826883, "02 - High Frequency (UK) - Liberation.flac": 38409725, "00 - High Frequency (UK) - Harry & Liberation (4050538796001) [2022].jpg": 49626}
创建时间: 2022-09-11 08:53:52 大小:73.71 MB 文件数量:3 热度:1 最近下载:2025-02-15 08:29:02
    {"01 - Dj Vapour - High Fi.flac": 43687548, "02 - Dj Vapour - Iv'e Been Waiting.flac": 31231213, "00 - Dj Vapour - High Fi & Iv'e Been Waiting (36HTZ108) [2022].jpg": 29509}
创建时间: 2022-09-11 19:19:20 大小:71.48 MB 文件数量:3 热度:2 最近下载:2025-01-11 08:17:03
    ... ": 4165818, "4167345": 4167345, "4192890": 4192890}, "High.Heat.S01E01.1080p.NF.WEB ... .RoSub-F1⭐️.mkv": 1818982525, "High.Heat.S01E01.1080p.NF.WEB ... RoSub-F1⭐️.mkv": 1719846296, "High.Heat.S01E02.1080p.NF.WEB ... -F1⭐️.srt": 33312, "High.Heat.2022.S01.1080p.NF.WEB-DL ...
创建时间: 2022-09-13 18:16:11 大小:50.83 GB 文件数量:157 热度:9 最近下载:2025-08-01 17:19:03
    {"Panda D. High-Performance Big Data Computing 2022.pdf": 21417791}
创建时间: 2022-09-16 23:25:19 大小:20.43 MB 文件数量:1 热度:2 最近下载:2025-02-05 06:18:03
    {"电影.mp4": 143072995}
创建时间: 2022-09-17 16:12:51 大小:136.45 MB 文件数量:1 热度:115 最近下载:2025-10-03 22:19:03
    {"Klapotke T. Chemistry of High-energy Materials 6ed 2022.pdf": 13253689}
创建时间: 2022-09-19 07:23:27 大小:12.64 MB 文件数量:1 热度:3 最近下载:2025-03-03 04:01:48
    {"Miryala M. High-Tc Superconducting Technology...2022.pdf": 79456249}
创建时间: 2022-09-19 16:27:28 大小:75.78 MB 文件数量:1 热度:2 最近下载:2025-01-18 20:44:04
    {"01 - Tryst Temps ft High C - Floating Images.flac": ... , "02 - Tryst Temps ft High C - Chemical Hearts.flac": 20999734 ... Tryst Temps ft High C - Chemical Hearts (4ND070) [2022].jpg": 26215, " ... 03 - Tryst Temps ft High C - Chemical ...
创建时间: 2022-09-22 08:43:58 大小:67.08 MB 文件数量:4 热度:8 最近下载:2025-09-19 02:25:07
    {"Cover.jpg": 1211228, "foo_dr.txt": 1763, "06 - I Believe.flac": 27911839, "Folder.auCDtect.txt": 6498, "12 - Blueschild.flac": 27727464, "08 - Turn It Up!.flac": 26519072, "03 - Blues-a-fied.flac": 27877505, "04 - Born to Ride.flac": 34356005, "01 - ...
创建时间: 2022-09-23 23:27:01 大小:421.83 MB 文件数量:18 热度:2 最近下载:2025-01-21 17:25:04
    ... of Rain.mp3": 11351871, "04. High Flying Man.mp3": 10030078, "01 ... ": 8316454, "09. Choose To Get High.mp3": 11644454, "10. Give Me ...
创建时间: 2022-09-24 09:17:45 大小:93.67 MB 文件数量:12 热度:4 最近下载:2025-09-17 14:34:04
    {"INFO.nfo": 1158, "cover (1).jpg": 40135, "06. I Believe.mp3": 8814424, "12. Blueschild.mp3": 8723524, "08. Turn It Up!.mp3": 8149875, "03. Blues-a-fied.mp3": 8703674, "04. Born to Ride.mp3": 10212507, "01. Painted Horse.mp3": 9182240, "07. Red Handed ...
创建时间: 2022-09-24 20:42:17 大小:134.33 MB 文件数量:17 热度:2 最近下载:2025-01-09 17:28:15
    {"cover.jpg": 151792, "06 - I Believe.flac": 28061163, "12 - Blueschild.flac": 27879235, "08 - Turn It Up!.flac": 26699357, "03 - Blues-a-fied.flac": 28052843, "04 - Born to Ride.flac": 34486562, "01 - Painted Horse.flac": 30352917, "07 - Red Handed Blues. ...
创建时间: 2022-09-25 22:34:29 大小:423.82 MB 文件数量:16 热度:2 最近下载:2025-02-22 14:09:02
    {"folder.jpg": 1085144, "01 - Egg (Telegraph Ave. Remix).flac": 34399243, "04 - Valisystem A (Appeal Version).flac": 34753143, "09 - Klawpeels (FAP Cassette B-Side).flac": 20118055, "03 - Aramchek (F.F. Fremont Redaction).flac": 26970006, "02 - Ich Bin's ( ...
创建时间: 2022-09-26 06:34:18 大小:280.03 MB 文件数量:11 热度:8 最近下载:2025-09-16 20:51:14
    {"INFO.nfo": 1158, "cover (1).jpg": 44013, "10. Swing 42 (Live 1981).mp3": 11041794, "07. Mona Lisa (Live 1981).mp3": 6708395, "18. All Of Me (Live 1981).mp3": 6879680, "16. Blue Skies (Live 1981).mp3": 8023081, "03. Instrumental (Live 1981).mp3": 5254113, ...
创建时间: 2022-09-26 23:10:10 大小:185.22 MB 文件数量:23 热度:2 最近下载:2025-01-10 16:09:03